Time;durP1;ratioP1;P1;durP2;ratioP2;P2;SDS_P1;SDS_P2;PMS_P1;PMS_P2;Temp;Humidity;BMP_temperature;BMP_pressure;BME280_temperature;BME280_humidity;BME280_pressure;Samples;Min_cycle;Max_cycle;Signal;HPM_P1;HPM_P2
2022/04/09 00:01:11;;;;;;;18.42;1.80;;;;;;;-145.18;100.00;46732.66;4991344;28;20426;-69
2022/04/09 00:04:57;;;;;;;19.50;2.50;;;;;;;-145.18;100.00;46728.75;4991557;28;20587;-69
2022/04/09 00:08:45;;;;;;;20.92;2.85;;;;;;;-145.18;100.00;46724.84;4990956;28;20290;-69
2022/04/09 00:12:29;;;;;;;15.10;2.03;;;;;;;-145.18;100.00;46720.94;4990939;28;20045;-69
2022/04/09 00:16:13;;;;;;;15.83;2.10;;;;;;;-145.18;100.00;46722.91;4991089;28;20390;-70
2022/04/09 00:19:57;;;;;;;27.20;2.50;;;;;;;-145.18;100.00;46724.84;4991003;28;20310;-69
2022/04/09 00:23:42;;;;;;;21.40;2.57;;;;;;;-145.18;100.00;46717.03;4990668;28;20279;-69
2022/04/09 00:27:27;;;;;;;14.73;2.30;;;;;;;-145.18;100.00;46720.94;4990577;28;20278;-69
2022/04/09 00:31:11;;;;;;;12.13;1.87;;;;;;;-145.18;100.00;46717.03;4991007;28;20636;-69
2022/04/09 00:42:04;;;;;;;17.85;3.00;;;;;;;-145.18;100.00;46717.03;4990395;28;20104;-69
2022/04/09 00:45:49;;;;;;;15.67;2.17;;;;;;;-145.18;100.00;46720.94;4990974;28;20054;-70
2022/04/09 00:49:33;;;;;;;17.90;1.73;;;;;;;-145.18;100.00;46728.75;4990785;28;20362;-69
2022/04/09 00:53:17;;;;;;;9.87;1.43;;;;;;;-145.18;100.00;46734.63;4990339;28;20772;-69
2022/04/09 02:02:32;;;;;;;15.90;1.77;;;;;;;-145.18;100.00;46728.75;5470351;22;20366;-69
2022/04/09 02:04:57;;;;;;;9.67;1.40;;;;;;;-145.18;100.00;46726.81;4990112;28;20811;-70
2022/04/09 02:07:22;;;;;;;11.90;1.73;;;;;;;-145.18;100.00;46722.91;4976096;28;20037;-70
2022/04/09 02:09:48;;;;;;;9.33;1.80;;;;;;;-145.18;100.00;46726.81;4976567;28;20039;-70
2022/04/09 02:12:14;;;;;;;7.73;1.50;;;;;;;-145.18;100.00;46720.94;4993147;28;20034;-69
2022/04/09 02:14:39;;;;;;;4.83;1.00;;;;;;;-145.18;100.00;46728.75;4990885;28;20038;-69
2022/04/09 02:17:05;;;;;;;9.33;1.00;;;;;;;-145.18;100.00;46724.84;4990631;28;20066;-71
2022/04/09 02:19:30;;;;;;;10.70;2.10;;;;;;;-145.18;100.00;46726.81;4993649;28;20041;-69
2022/04/09 02:21:56;;;;;;;11.00;1.60;;;;;;;-145.18;100.00;46726.81;4992639;28;20070;-69
2022/04/09 02:24:21;;;;;;;8.30;1.00;;;;;;;-145.18;100.00;46732.66;4993258;28;20030;-69
2022/04/09 02:26:46;;;;;;;16.50;1.40;;;;;;;-145.18;100.00;46720.94;4993353;28;20093;-69
2022/04/09 02:29:12;;;;;;;10.67;1.40;;;;;;;-145.18;100.00;46724.84;4992988;28;20038;-69
2022/04/09 02:31:38;;;;;;;6.70;1.87;;;;;;;-145.18;100.00;46722.91;4993570;28;20133;-69
2022/04/09 02:34:04;;;;;;;6.67;1.30;;;;;;;-145.18;100.00;46717.03;4993082;28;20042;-69
2022/04/09 02:36:31;;;;;;;13.95;2.25;;;;;;;-145.18;100.00;46720.94;4993519;28;20038;-69
2022/04/09 02:38:57;;;;;;;13.55;1.50;;;;;;;-145.18;100.00;46719.00;4992749;28;20062;-70
2022/04/09 02:41:23;;;;;;;12.33;1.67;;;;;;;-145.18;100.00;46717.03;4993181;28;20084;-69
2022/04/09 02:43:48;;;;;;;10.40;1.60;;;;;;;-145.18;100.00;46717.03;4992963;28;20074;-69
2022/04/09 02:46:15;;;;;;;10.80;1.63;;;;;;;-145.18;100.00;46707.28;4992812;28;20032;-69
2022/04/09 02:48:41;;;;;;;12.70;1.45;;;;;;;-145.18;100.00;46713.13;4992672;28;20030;-69
2022/04/09 02:51:06;;;;;;;17.10;1.60;;;;;;;-145.18;100.00;46711.19;4992856;28;20046;-69
2022/04/09 02:53:32;;;;;;;23.20;2.17;;;;;;;-145.18;100.00;46715.09;4992460;28;20045;-69
2022/04/09 02:55:57;;;;;;;14.73;2.10;;;;;;;-145.18;100.00;46715.09;4992800;28;20045;-69
2022/04/09 02:58:23;;;;;;;13.87;1.43;;;;;;;-145.18;100.00;46720.94;4992785;28;20038;-69
2022/04/09 03:00:48;;;;;;;10.87;1.40;;;;;;;-145.18;100.00;46719.00;4992858;28;20130;-69
2022/04/09 03:03:13;;;;;;;11.57;2.17;;;;;;;-145.18;100.00;46724.84;4992049;28;20054;-69
2022/04/09 03:05:39;;;;;;;7.77;1.33;;;;;;;-145.18;100.00;46724.84;4993067;28;20133;-69
2022/04/09 03:08:04;;;;;;;18.63;4.20;;;;;;;-145.18;100.00;46726.81;4991984;28;20026;-69
2022/04/09 03:10:30;;;;;;;17.47;1.70;;;;;;;-145.18;100.00;46726.81;4992679;28;20038;-69
2022/04/09 03:12:56;;;;;;;17.17;2.13;;;;;;;-145.18;100.00;46724.84;4992132;28;20511;-69
2022/04/09 03:15:22;;;;;;;12.70;3.37;;;;;;;-145.18;100.00;46728.75;4992681;28;20062;-69
2022/04/09 03:17:47;;;;;;;5.33;1.30;;;;;;;-145.18;100.00;46720.94;4991905;28;20823;-70
2022/04/09 03:20:12;;;;;;;9.80;1.40;;;;;;;-145.18;100.00;46726.81;4992359;28;20042;-69
2022/04/09 03:22:44;;;;;;;10.53;1.40;;;;;;;-145.18;100.00;46734.63;4991885;28;20483;-69
2022/04/09 03:25:11;;;;;;;11.37;1.40;;;;;;;-145.18;100.00;46726.81;4992066;28;20065;-69
2022/04/09 03:27:37;;;;;;;17.07;1.77;;;;;;;-145.18;100.00;46734.63;4992074;28;20283;-69
2022/04/09 03:30:02;;;;;;;14.43;1.67;;;;;;;-145.18;100.00;46732.66;4992266;28;20626;-69
2022/04/09 03:32:28;;;;;;;14.70;1.73;;;;;;;-145.18;100.00;46726.81;4974182;28;20080;-69
2022/04/09 03:34:53;;;;;;;11.63;2.10;;;;;;;-145.18;100.00;46728.75;4991963;28;20034;-70
2022/04/09 03:37:19;;;;;;;16.10;2.13;;;;;;;-145.18;100.00;46726.81;4991715;28;20513;-70
2022/04/09 03:39:44;;;;;;;6.33;1.20;;;;;;;-145.18;100.00;46724.84;4992193;28;20038;-70
2022/04/09 03:42:10;;;;;;;11.10;1.47;;;;;;;-145.18;100.00;46724.84;4991235;28;20045;-70
2022/04/09 03:44:35;;;;;;;14.83;1.90;;;;;;;-145.18;100.00;46732.66;4990858;28;20142;-70
2022/04/09 03:47:02;;;;;;;10.60;2.17;;;;;;;-145.18;100.00;46728.75;4991561;28;20062;-70
2022/04/09 03:49:32;;;;;;;12.07;2.20;;;;;;;-145.18;100.00;46732.66;4974365;28;20026;-70
2022/04/09 03:51:58;;;;;;;9.37;1.50;;;;;;;-145.18;100.00;46728.75;4991820;28;20283;-70
2022/04/09 03:54:23;;;;;;;12.33;1.30;;;;;;;-145.18;100.00;46726.81;4991564;28;20268;-70
2022/04/09 03:56:49;;;;;;;12.00;2.20;;;;;;;-145.18;100.00;46726.81;4991776;28;20104;-70
2022/04/09 03:59:15;;;;;;;15.20;2.10;;;;;;;-145.18;100.00;46732.66;4974204;28;20081;-70
2022/04/09 04:01:43;;;;;;;10.67;1.60;;;;;;;-145.18;100.00;46724.84;4990160;28;20383;-70
2022/04/09 04:04:10;;;;;;;8.67;1.73;;;;;;;-145.18;100.00;46730.72;4990869;28;20295;-70
2022/04/09 04:06:36;;;;;;;8.30;1.50;;;;;;;-145.18;100.00;46720.94;4991770;28;20272;-69
2022/04/09 04:09:01;;;;;;;13.00;1.33;;;;;;;-145.18;100.00;46732.66;4991314;28;20763;-69
2022/04/09 04:11:27;;;;;;;11.50;2.37;;;;;;;-145.18;100.00;46724.84;4991414;28;20117;-69
2022/04/09 04:13:53;;;;;;;13.40;1.75;;;;;;;-145.18;100.00;46726.81;4991245;28;20057;-69
2022/04/09 04:16:18;;;;;;;11.07;1.90;;;;;;;-145.18;100.00;46728.75;4991351;28;20062;-69
2022/04/09 04:18:44;;;;;;;9.37;1.70;;;;;;;-145.18;100.00;46728.75;4991020;28;20038;-69
2022/04/09 04:21:10;;;;;;;7.60;1.53;;;;;;;-145.18;100.00;46732.66;4991302;28;20483;-70
2022/04/09 04:23:35;;;;;;;14.17;2.23;;;;;;;-145.18;100.00;46728.75;4991043;28;20041;-70
2022/04/09 04:26:01;;;;;;;6.67;1.30;;;;;;;-145.18;100.00;46728.75;4991192;28;20446;-70
2022/04/09 04:28:26;;;;;;;11.50;1.50;;;;;;;-145.18;100.00;46726.81;4991130;28;20053;-69
2022/04/09 04:30:52;;;;;;;13.10;1.43;;;;;;;-145.18;100.00;46726.81;4991323;28;20276;-69
2022/04/09 04:33:17;;;;;;;17.10;3.00;;;;;;;-145.18;100.00;46726.81;4990744;28;20034;-69
2022/04/09 04:35:43;;;;;;;15.67;1.60;;;;;;;-145.18;100.00;46728.75;4991146;28;20479;-69
2022/04/09 04:38:08;;;;;;;19.27;2.80;;;;;;;-145.18;100.00;46726.81;4973040;28;20093;-69
2022/04/09 04:40:34;;;;;;;10.87;3.20;;;;;;;-145.18;100.00;46724.84;4991196;28;20030;-69
2022/04/09 04:42:59;;;;;;;20.70;2.37;;;;;;;-145.18;100.00;46734.63;4989469;28;20035;-69
2022/04/09 04:45:25;;;;;;;13.40;1.40;;;;;;;-145.18;100.00;46726.81;4975462;28;20122;-69
2022/04/09 04:47:50;;;;;;;14.37;1.80;;;;;;;-145.18;100.00;46728.75;4987134;28;20090;-69
2022/04/09 04:50:17;;;;;;;10.90;2.10;;;;;;;-145.18;100.00;46722.91;4982947;28;20043;-69
2022/04/09 04:52:43;;;;;;;14.10;1.60;;;;;;;-145.18;100.00;46728.75;4986252;28;20110;-69
2022/04/09 04:55:09;;;;;;;14.05;1.52;;;;;;;-145.18;100.00;46724.84;4986300;28;20272;-69
2022/04/09 04:57:44;;;;;;;15.33;2.20;;;;;;;-145.18;100.00;46726.81;4989888;28;20044;-69
2022/04/09 05:00:10;;;;;;;9.13;1.40;;;;;;;-145.18;100.00;46728.75;4990625;28;20296;-69
2022/04/09 05:02:36;;;;;;;12.98;1.55;;;;;;;-145.18;100.00;46726.81;4987112;28;20342;-69
2022/04/09 05:05:02;;;;;;;13.23;1.93;;;;;;;-145.18;100.00;46724.84;4988830;28;20442;-69
2022/04/09 05:07:56;;;;;;;18.57;3.07;;;;;;;-145.18;100.00;46726.81;4989173;28;20038;-69
2022/04/09 05:10:23;;;;;;;12.87;1.90;;;;;;;-145.18;100.00;46726.81;4972133;28;20034;-69
2022/04/09 05:12:51;;;;;;;9.80;2.07;;;;;;;-145.18;100.00;46726.81;4989320;28;20282;-69
2022/04/09 05:15:17;;;;;;;14.60;1.67;;;;;;;-145.18;100.00;46722.91;4989389;28;20681;-69
2022/04/09 05:17:43;;;;;;;10.07;1.60;;;;;;;-145.18;100.00;46719.00;4990528;28;20291;-69
2022/04/09 05:20:11;;;;;;;16.03;2.10;;;;;;;-145.18;100.00;46720.94;4990721;28;20041;-69
2022/04/09 05:22:41;;;;;;;6.73;2.17;;;;;;;-145.18;100.00;46719.00;4989951;28;20271;-69
2022/04/09 05:25:07;;;;;;;20.30;2.10;;;;;;;-145.18;100.00;46717.03;4990757;28;20284;-69
2022/04/09 05:27:33;;;;;;;14.20;1.97;;;;;;;-145.18;100.00;46720.94;4990349;28;20629;-69
2022/04/09 05:29:58;;;;;;;14.23;2.37;;;;;;;-145.18;100.00;46719.00;4990534;28;20393;-69
2022/04/09 05:32:23;;;;;;;14.93;2.47;;;;;;;-145.18;100.00;46715.09;4972644;28;20073;-70
2022/04/09 05:34:49;;;;;;;23.53;3.10;;;;;;;-145.18;100.00;46715.09;4990550;28;20030;-69
2022/04/09 05:37:15;;;;;;;21.53;2.93;;;;;;;-145.18;100.00;46715.09;4990088;28;20034;-69
2022/04/09 05:39:42;;;;;;;20.00;2.50;;;;;;;-145.18;100.00;46715.09;4989614;28;20081;-69
2022/04/09 05:42:08;;;;;;;10.00;1.50;;;;;;;-145.18;100.00;46713.13;4990412;28;20149;-69
2022/04/09 05:44:33;;;;;;;22.23;2.40;;;;;;;-145.18;100.00;46715.09;4989991;28;20387;-70
2022/04/09 05:47:00;;;;;;;12.13;2.50;;;;;;;-145.18;100.00;46719.00;4990337;28;20070;-70
2022/04/09 05:49:25;;;;;;;13.97;3.97;;;;;;;-145.18;100.00;46717.03;4992387;28;20053;-70
2022/04/09 05:51:51;;;;;;;16.53;2.10;;;;;;;-145.18;100.00;46720.94;4994123;28;20280;-70
2022/04/09 05:54:16;;;;;;;15.40;2.10;;;;;;;-145.18;100.00;46719.00;4976207;28;20034;-69
2022/04/09 05:56:42;;;;;;;9.60;2.30;;;;;;;-145.18;100.00;46719.00;4976624;28;20034;-70
2022/04/09 05:59:07;;;;;;;14.87;2.60;;;;;;;-145.18;100.00;46720.94;4993201;28;20069;-70
2022/04/09 06:01:33;;;;;;;15.67;2.23;;;;;;;-145.18;100.00;46719.00;4994066;28;20057;-70
2022/04/09 06:03:58;;;;;;;17.60;2.33;;;;;;;-145.18;100.00;46720.94;4987155;28;20043;-69
2022/04/09 06:06:23;;;;;;;17.13;2.27;;;;;;;-145.18;100.00;46720.94;4989177;28;20043;-69
2022/04/09 06:08:49;;;;;;;10.50;2.20;;;;;;;-145.18;100.00;46715.09;4973200;28;20452;-69
2022/04/09 06:11:15;;;;;;;21.17;2.37;;;;;;;-145.18;100.00;46720.94;4956542;28;20039;-70
2022/04/09 06:13:40;;;;;;;7.17;1.83;;;;;;;-145.18;100.00;46720.94;4954667;28;20507;-70
2022/04/09 06:16:08;;;;;;;11.37;1.97;;;;;;;-145.18;100.00;46722.91;4953134;29;20042;-72
2022/04/09 06:18:37;;;;;;;9.00;1.63;;;;;;;-145.18;100.00;46720.94;4954284;28;20047;-71
2022/04/09 06:21:04;;;;;;;8.73;2.22;;;;;;;-145.18;100.00;46722.91;4954574;28;20059;-71
2022/04/09 06:23:29;;;;;;;8.48;1.30;;;;;;;-145.18;100.00;46720.94;4954106;28;20040;-70
2022/04/09 06:25:54;;;;;;;13.73;1.77;;;;;;;-145.18;100.00;46720.94;4952970;28;20037;-68
2022/04/09 06:28:20;;;;;;;8.80;1.63;;;;;;;-145.18;100.00;46713.13;4954070;28;20039;-68
2022/04/09 06:30:45;;;;;;;3.40;1.07;;;;;;;-145.18;100.00;46715.09;4954708;28;20035;-67
2022/04/09 06:33:10;;;;;;;11.17;1.70;;;;;;;-145.18;100.00;46713.13;4953917;28;20110;-67
2022/04/09 06:35:36;;;;;;;4.70;0.93;;;;;;;-145.18;100.00;46715.09;4966658;28;20071;-67
2022/04/09 06:38:02;;;;;;;5.23;0.80;;;;;;;-145.18;100.00;46713.13;4953849;28;20152;-67
2022/04/09 06:40:28;;;;;;;6.25;1.38;;;;;;;-145.18;100.00;46719.00;4954540;28;20039;-67
2022/04/09 06:42:54;;;;;;;4.45;1.20;;;;;;;-145.18;100.00;46715.09;4953668;28;20050;-68
2022/04/09 06:45:19;;;;;;;8.00;1.23;;;;;;;-145.18;100.00;46717.03;4954391;28;20041;-68
2022/04/09 06:47:47;;;;;;;5.10;1.20;;;;;;;-145.18;100.00;46711.19;4953931;28;20452;-68
2022/04/09 06:50:13;;;;;;;12.90;1.70;;;;;;;-145.18;100.00;46711.19;4946772;28;20035;-68
2022/04/09 06:52:40;;;;;;;9.20;1.10;;;;;;;-145.18;100.00;46711.19;4972510;28;20263;-68
2022/04/09 06:55:07;;;;;;;9.93;1.50;;;;;;;-145.18;100.00;46709.22;4972184;28;20754;-68
2022/04/09 06:57:33;;;;;;;10.30;1.40;;;;;;;-145.18;100.00;46711.19;4970038;28;20301;-68
2022/04/09 06:59:59;;;;;;;8.60;1.27;;;;;;;-145.18;100.00;46705.31;4971922;28;20811;-68
2022/04/09 07:02:25;;;;;;;12.35;1.67;;;;;;;-145.18;100.00;46707.28;4974933;28;20058;-68
2022/04/09 07:04:51;;;;;;;6.13;1.30;;;;;;;-145.18;100.00;46699.47;4989547;28;20072;-68
2022/04/09 07:07:24;;;;;;;6.43;1.20;;;;;;;-145.18;100.00;46701.41;4972551;28;20023;-69
2022/04/09 07:09:50;;;;;;;8.13;1.70;;;;;;;-145.18;100.00;46697.50;4955463;28;20265;-69
2022/04/09 07:12:16;;;;;;;7.67;1.50;;;;;;;-145.18;100.00;46695.56;4972610;28;20331;-69
2022/04/09 07:14:42;;;;;;;3.40;1.47;;;;;;;-145.18;100.00;46697.50;4972381;28;20058;-69
2022/04/09 07:17:07;;;;;;;16.70;2.93;;;;;;;-145.18;100.00;46691.66;4990726;28;20387;-69
2022/04/09 07:19:33;;;;;;;13.90;2.37;;;;;;;-145.18;100.00;46689.69;4991479;28;20111;-69
2022/04/09 07:21:58;;;;;;;20.60;2.83;;;;;;;-145.18;100.00;46693.59;4991960;28;20122;-68
2022/04/09 07:24:24;;;;;;;19.77;3.50;;;;;;;-145.18;100.00;46695.56;4989501;28;20037;-69
2022/04/09 07:26:49;;;;;;;12.60;2.10;;;;;;;-145.18;100.00;46695.56;4972727;28;20493;-68
2022/04/09 07:29:15;;;;;;;12.43;1.97;;;;;;;-145.18;100.00;46691.66;4971987;28;20055;-68
2022/04/09 07:31:40;;;;;;;11.13;2.60;;;;;;;-145.18;100.00;46676.03;4972804;28;20035;-68
2022/04/09 07:34:06;;;;;;;9.30;2.07;;;;;;;-145.18;100.00;46658.44;4971739;28;20074;-68
2022/04/09 07:36:31;;;;;;;11.23;2.00;;;;;;;-145.18;100.00;46636.94;4972433;28;20097;-68
2022/04/09 07:38:56;;;;;;;17.47;2.57;;;;;;;-145.18;100.00;46595.94;4971821;28;20094;-68
2022/04/09 07:41:22;;;;;;;12.43;2.13;;;;;;;-145.18;100.00;46603.75;4972523;28;20022;-69
2022/04/09 07:43:47;;;;;;;9.00;2.07;;;;;;;-145.18;100.00;46572.50;4972221;28;20554;-68
2022/04/09 07:46:12;;;;;;;9.93;3.80;;;;;;;-145.18;100.00;46576.41;4972274;28;20031;-68
2022/04/09 07:48:38;;;;;;;9.00;2.30;;;;;;;-145.18;100.00;46572.50;4971579;28;20041;-68
2022/04/09 07:51:03;;;;;;;6.03;1.77;;;;;;;-145.18;100.00;46572.50;4971934;28;20046;-68
2022/04/09 07:53:29;;;;;;;9.97;2.70;;;;;;;-145.18;100.00;46574.44;4971836;28;20041;-68
2022/04/09 07:55:54;;;;;;;9.00;1.77;;;;;;;-145.18;100.00;46584.22;4972521;28;20031;-68
2022/04/09 07:58:20;;;;;;;12.00;1.50;;;;;;;-145.18;100.00;46613.50;4954395;28;20034;-68
2022/04/09 08:00:45;;;;;;;7.13;1.70;;;;;;;-145.18;100.00;46613.50;4971856;28;20500;-68
2022/04/09 08:03:11;;;;;;;5.97;1.87;;;;;;;-145.18;100.00;46597.88;4970249;28;20070;-68
2022/04/09 08:05:37;;;;;;;6.33;1.33;;;;;;;-145.18;100.00;46574.44;4962954;28;20134;-68
2022/04/09 08:08:04;;;;;;;5.37;0.87;;;;;;;-145.18;100.00;46576.41;4952346;29;20041;-68
2022/04/09 08:10:30;;;;;;;2.47;0.73;;;;;;;-145.18;100.00;46568.59;4952459;28;20278;-68
2022/04/09 08:12:56;;;;;;;7.23;1.83;;;;;;;-145.18;100.00;46582.25;4951848;29;20796;-69
2022/04/09 08:15:23;;;;;;;2.57;1.07;;;;;;;-145.18;100.00;46582.25;4952750;29;20027;-68
2022/04/09 08:17:49;;;;;;;3.17;1.03;;;;;;;-145.18;100.00;46613.50;4951487;29;20375;-68
2022/04/09 08:20:18;;;;;;;4.57;1.43;;;;;;;-145.18;100.00;46609.59;4952104;29;20770;-68
2022/04/09 08:22:44;;;;;;;8.37;1.70;;;;;;;-145.18;100.00;46601.78;4952433;29;20034;-68
2022/04/09 08:25:09;;;;;;;6.47;1.30;;;;;;;-145.18;100.00;46586.16;4952063;29;20763;-68
2022/04/09 08:27:35;;;;;;;6.97;1.47;;;;;;;-145.18;100.00;46593.97;4952653;29;20038;-68
2022/04/09 08:30:02;;;;;;;3.87;0.77;;;;;;;-145.18;100.00;46592.03;4951967;29;20086;-68
2022/04/09 08:32:29;;;;;;;4.83;0.80;;;;;;;-145.18;100.00;46601.78;4990798;28;20113;-68
2022/04/09 08:34:55;;;;;;;8.43;1.60;;;;;;;-145.18;100.00;46597.88;4990430;28;20768;-68
2022/04/09 08:37:22;;;;;;;3.47;0.70;;;;;;;-145.18;100.00;46603.75;4990858;28;20311;-68
2022/04/09 08:39:48;;;;;;;4.53;0.50;;;;;;;-145.18;100.00;46629.13;4991007;28;20269;-68
2022/04/09 08:42:14;;;;;;;1.03;0.37;;;;;;;-145.18;100.00;46674.06;4972254;28;20327;-68
2022/04/09 08:44:40;;;;;;;1.70;0.50;;;;;;;-145.18;100.00;46648.69;4971234;28;20488;-68
2022/04/09 08:47:05;;;;;;;3.97;0.43;;;;;;;-145.18;100.00;46658.44;4971348;28;20440;-68
2022/04/09 08:49:37;;;;;;;4.60;0.60;;;;;;;-145.18;100.00;46640.88;4969844;28;20058;-68
2022/04/09 08:52:06;;;;;;;6.57;0.60;;;;;;;-145.18;100.00;46642.81;4971191;28;20034;-68
2022/04/09 08:54:31;;;;;;;3.50;0.70;;;;;;;-145.18;100.00;46638.91;4971107;28;20795;-68
2022/04/09 08:56:57;;;;;;;3.83;0.73;;;;;;;-145.18;100.00;46619.38;4954082;28;20273;-68
2022/04/09 08:59:22;;;;;;;6.00;1.20;;;;;;;-145.18;100.00;46619.38;4970967;28;20039;-68
2022/04/09 09:01:47;;;;;;;9.03;1.23;;;;;;;-145.18;100.00;46617.41;4969996;28;20074;-68
2022/04/09 09:04:13;;;;;;;3.60;0.73;;;;;;;-145.18;100.00;46601.78;4970678;28;20050;-67
2022/04/09 09:06:44;;;;;;;8.80;1.20;;;;;;;-145.18;100.00;46593.97;4971340;28;20603;-68
2022/04/09 09:09:25;;;;;;;4.03;0.80;;;;;;;-145.18;100.00;46631.09;4970092;28;20415;-68
2022/04/09 09:11:51;;;;;;;1.77;0.50;;;;;;;-145.18;100.00;46662.34;4971172;28;20309;-68
2022/04/09 09:14:25;;;;;;;11.17;0.67;;;;;;;-145.18;100.00;46660.41;4970556;28;20276;-68
2022/04/09 09:16:51;;;;;;;2.60;0.60;;;;;;;-145.18;100.00;46664.31;4970891;28;20496;-68
2022/04/09 09:19:17;;;;;;;3.03;1.13;;;;;;;-145.18;100.00;46648.69;4970696;28;20292;-69
2022/04/09 09:21:55;;;;;;;4.53;0.70;;;;;;;-145.18;100.00;46633.06;4971558;28;20269;-68
2022/04/09 09:24:20;;;;;;;3.13;0.77;;;;;;;-145.18;100.00;46658.44;4974375;28;20114;-68
2022/04/09 09:26:55;;;;;;;4.23;1.23;;;;;;;-145.18;100.00;46652.59;4972728;28;20363;-68
2022/04/09 09:29:27;;;;;;;4.03;0.77;;;;;;;-145.18;100.00;46635.00;4974797;28;20042;-68
2022/04/09 09:31:53;;;;;;;5.13;2.50;;;;;;;-145.18;100.00;46625.22;4975180;28;20038;-68
2022/04/09 09:34:19;;;;;;;4.60;0.80;;;;;;;-145.18;100.00;46638.91;4974202;28;20284;-68
2022/04/09 09:36:45;;;;;;;6.23;1.30;;;;;;;-145.18;100.00;46613.50;4974993;28;20761;-68
2022/04/09 09:39:13;;;;;;;4.20;1.10;;;;;;;-145.18;100.00;46613.50;4974166;28;20038;-68
2022/04/09 09:41:48;;;;;;;6.30;1.53;;;;;;;-145.18;100.00;46603.75;4974690;28;20097;-68
2022/04/09 09:44:14;;;;;;;8.00;1.20;;;;;;;-145.18;100.00;46629.13;4973032;28;20275;-68
2022/04/09 09:46:40;;;;;;;6.10;1.37;;;;;;;-145.18;100.00;46640.88;4974616;28;20027;-68
2022/04/09 09:49:05;;;;;;;8.33;1.20;;;;;;;-145.18;100.00;46676.03;4973825;28;20479;-68
2022/04/09 09:51:31;;;;;;;6.30;1.63;;;;;;;-145.18;100.00;46638.91;4974506;28;20026;-68
2022/04/09 09:54:03;;;;;;;7.80;1.87;;;;;;;-145.18;100.00;46789.31;4975154;28;20015;-68
2022/04/09 09:56:39;;;;;;;5.00;1.03;;;;;;;-145.18;100.00;46924.09;4993279;28;20052;-68
2022/04/09 09:59:05;;;;;;;6.23;1.10;;;;;;;-145.18;100.00;47498.47;4992803;28;20778;-68
2022/04/09 10:01:37;;;;;;;5.63;1.07;;;;;;;-145.18;100.00;47488.69;4993051;28;20026;-68
2022/04/09 10:04:04;;;;;;;5.80;0.97;;;;;;;-145.18;100.00;47469.16;4992599;28;20813;-68
2022/04/09 10:06:31;;;;;;;3.47;0.83;;;;;;;-145.18;100.00;47426.19;4974289;28;20279;-68
2022/04/09 10:08:58;;;;;;;3.57;1.03;;;;;;;-145.18;100.00;47473.06;4993140;28;20260;-68
2022/04/09 10:11:25;;;;;;;6.00;1.03;;;;;;;-145.18;100.00;47457.44;4992323;28;20921;-68
2022/04/09 10:13:51;;;;;;;8.83;0.80;;;;;;;-145.18;100.00;47469.16;4993084;28;20949;-68
2022/04/09 10:16:21;;;;;;;4.57;0.87;;;;;;;-145.18;100.00;47463.31;4993199;28;20272;-68
2022/04/09 10:18:51;;;;;;;4.17;1.17;;;;;;;-145.18;100.00;47322.63;4993259;28;20092;-68
2022/04/09 10:21:17;;;;;;;2.23;0.80;;;;;;;-145.18;100.00;47406.63;4975607;28;20300;-68
2022/04/09 10:23:44;;;;;;;3.57;1.10;;;;;;;-145.18;100.00;47398.81;4993097;28;20321;-68
2022/04/09 10:26:11;;;;;;;5.10;0.80;;;;;;;-145.18;100.00;47387.09;4993168;28;20260;-68
2022/04/09 10:28:38;;;;;;;4.10;0.97;;;;;;;-145.18;100.00;47408.59;4992692;28;20287;-68
2022/04/09 10:31:22;;;;;;;2.87;0.80;;;;;;;-145.18;100.00;47383.19;4993272;28;20271;-68
2022/04/09 10:33:55;;;;;;;5.43;0.90;;;;;;;-145.18;100.00;47373.44;4992544;28;20272;-68
2022/04/09 10:36:42;;;;;;;0.87;0.50;;;;;;;-145.18;100.00;47383.19;4992636;28;20276;-68
2022/04/09 10:39:21;;;;;;;7.60;0.83;;;;;;;-145.18;100.00;47375.38;4992319;28;20291;-68
2022/04/09 10:41:47;;;;;;;3.87;1.13;;;;;;;-145.18;100.00;47385.16;4992885;28;20307;-68
2022/04/09 10:44:32;;;;;;;5.53;0.90;;;;;;;-145.18;100.00;47367.56;4991872;28;20276;-68
2022/04/09 10:47:01;;;;;;;2.80;0.93;;;;;;;-145.18;100.00;47375.38;4992345;28;20034;-68
2022/04/09 10:49:28;;;;;;;4.43;0.83;;;;;;;-145.18;100.00;47367.56;4992303;28;20280;-68
2022/04/09 10:52:15;;;;;;;2.40;0.80;;;;;;;-145.18;100.00;47367.56;4992778;28;20331;-68
2022/04/09 10:55:01;;;;;;;4.43;0.80;;;;;;;-145.18;100.00;47449.63;4992361;28;20268;-68
2022/04/09 10:57:27;;;;;;;3.47;1.13;;;;;;;-145.18;100.00;47453.53;4992100;28;20985;-68
2022/04/09 10:59:57;;;;;;;8.00;1.00;;;;;;;-145.18;100.00;47441.81;4992411;28;20113;-68
2022/04/09 11:02:23;;;;;;;5.43;0.80;;;;;;;-145.18;100.00;47459.41;4991981;28;20029;-70
2022/04/09 11:04:48;;;;;;;3.47;0.80;;;;;;;-145.18;100.00;47383.19;4990299;28;20362;-68
2022/04/09 11:07:20;;;;;;;3.17;0.77;;;;;;;-145.18;100.00;47375.38;4972638;28;20364;-68
2022/04/09 11:10:18;;;;;;;7.23;1.20;;;;;;;-145.18;100.00;47447.66;4972714;28;20504;-67
2022/04/09 11:12:45;;;;;;;2.17;1.00;;;;;;;-145.18;100.00;47484.78;4950046;28;20742;-68
2022/04/09 11:15:21;;;;;;;2.77;1.63;;;;;;;-145.18;100.00;47490.66;4972142;28;20761;-68
2022/04/09 11:17:46;;;;;;;3.55;1.17;;;;;;;-145.18;100.00;47494.56;4989143;28;20302;-68
2022/04/09 11:20:17;;;;;;;3.53;1.00;;;;;;;-145.18;100.00;47432.03;4991921;28;20034;-68
2022/04/09 11:22:44;;;;;;;6.10;1.00;;;;;;;-145.18;100.00;47465.25;4991585;28;20027;-68
2022/04/09 11:25:16;;;;;;;6.57;0.70;;;;;;;-145.18;100.00;47387.09;4963204;28;20288;-67
2022/04/09 11:27:41;;;;;;;5.27;1.13;;;;;;;-145.18;100.00;47361.72;4953402;29;20265;-68
2022/04/09 11:30:07;;;;;;;5.23;1.00;;;;;;;-145.18;100.00;47432.03;4952817;29;20773;-68
2022/04/09 11:32:35;;;;;;;5.60;0.80;;;;;;;-145.18;100.00;47471.13;4953597;29;20548;-67
2022/04/09 11:35:04;;;;;;;3.10;1.10;;;;;;;-145.18;100.00;47426.19;4952909;29;20273;-68
2022/04/09 11:37:30;;;;;;;9.30;0.70;;;;;;;-145.18;100.00;47391.00;4953234;29;20296;-68
2022/04/09 11:39:57;;;;;;;6.83;1.20;;;;;;;-145.18;100.00;46992.47;4952652;29;20305;-68
2022/04/09 11:42:23;;;;;;;5.17;1.43;;;;;;;-145.18;100.00;46900.66;4953036;29;20117;-68
2022/04/09 11:44:49;;;;;;;2.60;0.70;;;;;;;-145.18;100.00;46812.75;4952670;29;20284;-68
2022/04/09 11:47:17;;;;;;;6.13;1.37;;;;;;;-145.18;100.00;46777.59;4952281;28;20479;-68
2022/04/09 11:49:44;;;;;;;6.87;1.40;;;;;;;-145.18;100.00;47013.97;4952703;29;20373;-68
2022/04/09 11:52:10;;;;;;;2.10;0.90;;;;;;;-145.18;100.00;46863.53;4952760;29;20304;-68
2022/04/09 11:54:38;;;;;;;7.50;1.97;;;;;;;-145.18;100.00;46799.09;4966213;28;20276;-68
2022/04/09 11:57:10;;;;;;;6.30;1.30;;;;;;;-145.18;100.00;46758.06;4972242;28;20311;-68
2022/04/09 11:59:36;;;;;;;7.60;1.30;;;;;;;-145.18;100.00;47023.72;4971540;28;20367;-68
2022/04/09 12:02:01;;;;;;;7.13;1.53;;;;;;;-145.18;100.00;47336.31;4972020;28;20311;-68
2022/04/09 12:04:35;;;;;;;6.50;1.27;;;;;;;-145.18;100.00;47420.31;4971665;28;20332;-68
2022/04/09 12:07:04;;;;;;;8.47;1.10;;;;;;;-145.18;100.00;47502.38;4972178;28;20093;-68
2022/04/09 12:09:30;;;;;;;9.63;1.77;;;;;;;-145.18;100.00;47209.31;4971689;28;20286;-68
2022/04/09 12:12:00;;;;;;;6.20;1.33;;;;;;;-145.18;100.00;46867.44;4971857;28;20753;-69
2022/04/09 12:14:27;;;;;;;10.00;2.23;;;;;;;-145.18;100.00;46687.75;4971480;28;20789;-68
2022/04/09 12:16:53;;;;;;;7.30;1.63;;;;;;;-145.18;100.00;46801.03;4972082;28;20368;-68
2022/04/09 12:19:28;;;;;;;15.33;2.97;;;;;;;-145.18;100.00;47238.63;4971318;28;20380;-68
2022/04/09 12:21:53;;;;;;;9.23;1.48;;;;;;;-145.18;100.00;47287.47;4972094;28;20110;-68
2022/04/09 12:24:19;;;;;;;8.57;1.43;;;;;;;-145.18;100.00;47277.69;4971244;28;20561;-68
2022/04/09 12:26:45;;;;;;;9.27;1.40;;;;;;;-145.18;100.00;47260.13;4971935;28;20035;-69
2022/04/09 12:29:17;;;;;;;8.20;1.10;;;;;;;-145.18;100.00;47287.47;4971341;28;20071;-69
2022/04/09 12:31:44;;;;;;;7.87;1.43;;;;;;;-145.18;100.00;47262.06;4971987;28;20384;-69
2022/04/09 12:34:10;;;;;;;7.53;1.20;;;;;;;-145.18;100.00;47420.31;4970983;28;20279;-68
2022/04/09 12:36:38;;;;;;;9.10;1.40;;;;;;;-145.18;100.00;47514.09;4970352;28;20271;-68